History for Boise, ID


Lat: N 43 ° 36 ' 50 '' ( 43.614 ° )
Lon: W 116 ° 12 ' 14 '' ( -116.204 ° )

Elevation: 2847 ft
Data type:
Distance calculator

 
 

Select another date:

« Previous Day   |   Next Day »

Daily Statistics
  Current High Low Average
Temperature - 43.0 °F 29.0 °F 36.0 °F
Dew Point - 37.0 °F 27.0 °F 31.7 °F
Humidity % 96% 79% 90%
Wind Speed - 6.0mph - 1.4mph
Wind Gust - 9.0mph - -
Wind - - ENE
Pressure - 27.60in 27.38in -
Precipitation 0.01in      

Tabular Data for January 26, 2015
Time Temperature Dew Point Pressure Wind Wind Speed Wind Gust Humidity Hourly Precipitation
02:02 33.0 °F 31.0 °F 27.60in ENE 3.0mph 5.0mph 94% 0.00in
02:23 33.0 °F 31.0 °F 27.60in ENE 3.0mph 5.0mph 94% 0.00in
02:33 33.0 °F 31.0 °F 27.60in ENE 3.0mph 5.0mph 94% 0.00in
02:43 33.0 °F 31.0 °F 27.60in ENE 3.0mph 5.0mph 94% 0.00in
02:54 33.0 °F 31.0 °F 27.60in ENE 3.0mph 5.0mph 94% 0.00in
03:02 31.0 °F 29.0 °F 27.60in ENE 0.0mph 2.0mph 93% 0.00in
03:24 31.0 °F 29.0 °F 27.60in ENE 0.0mph 2.0mph 93% 0.00in
03:34 31.0 °F 29.0 °F 27.60in ENE 0.0mph 2.0mph 93% 0.00in
03:44 31.0 °F 29.0 °F 27.60in ENE 0.0mph 2.0mph 93% 0.00in
03:54 31.0 °F 29.0 °F 27.60in ENE 0.0mph 2.0mph 93% 0.00in
06:02 30.0 °F 29.0 °F 27.55in ENE 1.0mph 3.0mph 96% 0.00in
06:23 30.0 °F 29.0 °F 27.55in ENE 1.0mph 3.0mph 96% 0.00in
06:33 30.0 °F 29.0 °F 27.55in ENE 1.0mph 3.0mph 96% 0.00in
06:42 30.0 °F 29.0 °F 27.55in ENE 1.0mph 3.0mph 96% 0.00in
06:52 30.0 °F 29.0 °F 27.55in ENE 1.0mph 3.0mph 96% 0.00in
07:02 30.0 °F 28.0 °F 27.55in ENE 1.0mph 7.0mph 92% 0.00in
07:22 30.0 °F 28.0 °F 27.55in ENE 1.0mph 7.0mph 92% 0.00in
07:33 30.0 °F 28.0 °F 27.55in ENE 1.0mph 7.0mph 92% 0.00in
07:43 30.0 °F 28.0 °F 27.55in ENE 1.0mph 7.0mph 92% 0.00in
07:52 30.0 °F 28.0 °F 27.55in ENE 1.0mph 7.0mph 92% 0.00in
08:02 29.0 °F 27.0 °F 27.55in ENE 0.0mph 4.0mph 94% 0.00in
08:22 29.0 °F 27.0 °F 27.55in ENE 0.0mph 4.0mph 94% 0.00in
08:33 29.0 °F 27.0 °F 27.55in ENE 0.0mph 4.0mph 94% 0.00in
08:44 29.0 °F 27.0 °F 27.55in ENE 0.0mph 4.0mph 94% 0.00in
08:54 29.0 °F 27.0 °F 27.55in ENE 0.0mph 4.0mph 94% 0.00in
09:02 30.0 °F 28.0 °F 27.55in ENE 0.0mph 1.0mph 94% 0.00in
09:24 30.0 °F 28.0 °F 27.55in ENE 0.0mph 1.0mph 94% 0.00in
09:34 30.0 °F 28.0 °F 27.55in ENE 0.0mph 1.0mph 94% 0.00in
09:45 30.0 °F 28.0 °F 27.55in ENE 0.0mph 1.0mph 94% 0.00in
09:55 30.0 °F 28.0 °F 27.55in ENE 0.0mph 1.0mph 94% 0.00in
10:02 34.0 °F 32.0 °F 27.55in ENE 0.0mph 3.0mph 91% 0.01in
10:23 34.0 °F 32.0 °F 27.55in ENE 0.0mph 3.0mph 91% 0.01in
10:33 34.0 °F 32.0 °F 27.55in ENE 0.0mph 3.0mph 91% 0.01in
10:43 34.0 °F 32.0 °F 27.55in ENE 0.0mph 3.0mph 91% 0.01in
10:52 34.0 °F 32.0 °F 27.55in ENE 0.0mph 3.0mph 91% 0.01in
11:02 35.0 °F 33.0 °F 27.54in ENE 0.0mph 3.0mph 92% 0.00in
11:23 35.0 °F 33.0 °F 27.54in ENE 0.0mph 3.0mph 92% 0.00in
11:32 35.0 °F 33.0 °F 27.54in ENE 0.0mph 3.0mph 92% 0.00in
11:43 35.0 °F 33.0 °F 27.54in ENE 0.0mph 3.0mph 92% 0.00in
11:53 35.0 °F 33.0 °F 27.54in ENE 0.0mph 3.0mph 92% 0.00in
13:02 39.0 °F 35.0 °F 27.49in ENE 0.0mph 2.0mph 85% 0.00in
13:24 39.0 °F 35.0 °F 27.49in ENE 0.0mph 2.0mph 85% 0.00in
13:32 39.0 °F 35.0 °F 27.49in ENE 0.0mph 2.0mph 85% 0.00in
13:43 39.0 °F 35.0 °F 27.49in ENE 0.0mph 2.0mph 85% 0.00in
13:53 39.0 °F 35.0 °F 27.49in ENE 0.0mph 2.0mph 85% 0.00in
14:02 40.0 °F 36.0 °F 27.46in ENE 3.0mph 6.0mph 84% 0.00in
14:22 40.0 °F 36.0 °F 27.46in ENE 3.0mph 6.0mph 84% 0.00in
14:34 40.0 °F 36.0 °F 27.46in ENE 3.0mph 6.0mph 84% 0.00in
14:44 40.0 °F 36.0 °F 27.46in ENE 3.0mph 6.0mph 84% 0.00in
14:53 40.0 °F 36.0 °F 27.46in ENE 3.0mph 6.0mph 84% 0.00in
15:02 43.0 °F 37.0 °F 27.43in ENE 1.0mph 5.0mph 79% 0.00in
15:24 43.0 °F 37.0 °F 27.43in ENE 1.0mph 5.0mph 79% 0.00in
15:34 43.0 °F 37.0 °F 27.43in ENE 1.0mph 5.0mph 79% 0.00in
15:44 43.0 °F 37.0 °F 27.43in ENE 1.0mph 5.0mph 79% 0.00in
15:54 43.0 °F 37.0 °F 27.43in ENE 1.0mph 5.0mph 79% 0.00in
18:02 38.0 °F 34.0 °F 27.39in ENE 3.0mph 6.0mph 84% 0.00in
18:22 38.0 °F 34.0 °F 27.39in ENE 3.0mph 6.0mph 84% 0.00in
18:32 38.0 °F 34.0 °F 27.39in ENE 3.0mph 6.0mph 84% 0.00in
18:42 38.0 °F 34.0 °F 27.39in ENE 3.0mph 6.0mph 84% 0.00in
18:52 38.0 °F 34.0 °F 27.39in ENE 3.0mph 6.0mph 84% 0.00in
19:02 36.0 °F 33.0 °F 27.38in ENE 6.0mph 9.0mph 89% 0.00in
19:22 36.0 °F 33.0 °F 27.38in ENE 6.0mph 9.0mph 89% 0.00in
19:33 36.0 °F 33.0 °F 27.38in ENE 6.0mph 9.0mph 89% 0.00in
19:43 36.0 °F 33.0 °F 27.38in ENE 6.0mph 9.0mph 89% 0.00in
19:52 36.0 °F 33.0 °F 27.38in ENE 6.0mph 9.0mph 89% 0.00in

Powered by the Weather Underground, Inc.